createdAt,value
2023-02-13T00:00:59.133Z,5.15
2023-02-13T00:06:01.348Z,5.01
2023-02-13T00:11:03.423Z,4.36
2023-02-13T00:16:06.644Z,4.03
2023-02-13T00:21:15.670Z,3.88
2023-02-13T00:26:18.819Z,3.80
2023-02-13T00:31:22.783Z,3.70
2023-02-13T00:36:25.691Z,3.77
2023-02-13T00:41:28.589Z,3.58
2023-02-13T00:46:31.108Z,3.46
2023-02-13T00:51:33.628Z,3.47
2023-02-13T00:56:36.079Z,4.01
2023-02-13T01:01:38.594Z,4.10
2023-02-13T01:06:41.285Z,4.41
2023-02-13T01:11:43.730Z,3.97
2023-02-13T01:16:46.445Z,3.64
2023-02-13T01:21:48.954Z,3.39
2023-02-13T01:26:54.384Z,3.25
2023-02-13T01:31:56.835Z,3.21
2023-02-13T01:37:03.996Z,3.22
2023-02-13T01:42:14.864Z,3.10
2023-02-13T01:47:45.114Z,2.96
2023-02-13T01:52:57.495Z,3.05
2023-02-13T01:58:07.291Z,3.54
2023-02-13T02:03:17.659Z,3.39
2023-02-13T02:08:21.097Z,3.17
2023-02-13T02:13:28.346Z,3.22
2023-02-13T02:18:38.410Z,3.05
2023-02-13T02:23:53.323Z,3.48
2023-02-13T02:29:14.692Z,3.65
2023-02-13T02:34:32.302Z,3.48
2023-02-13T02:40:05.459Z,3.46
2023-02-13T02:45:38.203Z,3.55
2023-02-13T02:50:54.890Z,4.48
2023-02-13T02:56:20.753Z,3.31
2023-02-13T03:01:45.709Z,2.97
2023-02-13T03:06:59.679Z,3.45
2023-02-13T03:12:21.992Z,3.28
2023-02-13T03:17:42.942Z,2.81
2023-02-13T03:23:12.329Z,2.60
2023-02-13T03:28:55.151Z,2.60
2023-02-13T03:34:00.488Z,2.55
2023-02-13T03:39:23.899Z,2.65
2023-02-13T03:44:30.626Z,2.64
2023-02-13T03:49:59.384Z,2.61
2023-02-13T03:55:42.875Z,2.60
2023-02-13T04:00:50.543Z,2.44
2023-02-13T04:06:15.319Z,2.66
2023-02-13T04:11:29.881Z,3.04
2023-02-13T04:16:43.004Z,2.86
2023-02-13T04:21:49.490Z,2.99
2023-02-13T04:26:52.794Z,3.12
2023-02-13T04:31:55.345Z,3.37
2023-02-13T04:36:57.802Z,3.45
2023-02-13T04:42:00.484Z,3.61
2023-02-13T04:47:02.858Z,3.76
2023-02-13T04:52:05.358Z,3.78
2023-02-13T04:57:07.814Z,3.71
2023-02-13T05:02:10.230Z,4.07
2023-02-13T05:07:12.638Z,4.05
2023-02-13T05:12:16.183Z,4.66
2023-02-13T05:17:19.246Z,4.01
2023-02-13T05:22:40.075Z,3.82
2023-02-13T05:27:42.489Z,3.43
2023-02-13T05:32:44.899Z,3.47
2023-02-13T05:37:47.889Z,4.13
2023-02-13T05:42:54.275Z,3.74
2023-02-13T05:47:56.845Z,3.83
2023-02-13T05:52:59.245Z,3.60
2023-02-13T05:58:01.628Z,3.85
2023-02-13T06:03:04.217Z,3.80
2023-02-13T06:08:06.762Z,3.67
2023-02-13T06:13:09.188Z,3.37
2023-02-13T06:18:12.319Z,3.78
2023-02-13T06:23:15.540Z,4.17
2023-02-13T06:28:18.303Z,4.48
2023-02-13T06:33:20.823Z,3.68
2023-02-13T06:38:24.401Z,3.70
2023-02-13T06:43:27.600Z,4.19
2023-02-13T06:48:30.055Z,4.63
2023-02-13T06:53:32.773Z,4.42
2023-02-13T06:58:35.529Z,4.17
2023-02-13T07:03:37.988Z,4.30
2023-02-13T07:08:40.384Z,4.09
2023-02-13T07:13:43.668Z,4.52
2023-02-13T07:18:46.638Z,5.36
2023-02-13T07:23:49.257Z,4.84
2023-02-13T07:29:05.653Z,4.48
2023-02-13T07:34:12.738Z,5.40
2023-02-13T07:39:15.125Z,5.88
2023-02-13T07:44:18.089Z,6.15
2023-02-13T07:49:20.626Z,6.62
2023-02-13T07:54:23.272Z,6.58
2023-02-13T07:59:25.937Z,6.55
2023-02-13T08:04:28.396Z,6.52
2023-02-13T08:09:49.260Z,6.38
2023-02-13T08:14:53.082Z,5.57
2023-02-13T08:19:55.534Z,5.41
2023-02-13T08:24:57.974Z,4.71
2023-02-13T08:30:01.905Z,5.07
2023-02-13T08:35:04.506Z,5.05
2023-02-13T08:40:10.696Z,5.34
2023-02-13T08:45:13.312Z,5.48
2023-02-13T08:50:15.820Z,5.17
2023-02-13T08:55:18.530Z,5.44
2023-02-13T09:00:21.611Z,5.73
2023-02-13T09:05:24.268Z,5.95
2023-02-13T09:10:26.754Z,5.99
2023-02-13T09:15:29.652Z,6.19
2023-02-13T09:20:32.408Z,7.10
2023-02-13T09:25:34.804Z,7.94
2023-02-13T09:30:37.488Z,7.46
2023-02-13T09:35:42.272Z,8.30
2023-02-13T09:40:56.540Z,7.90
2023-02-13T09:46:13.490Z,8.56
2023-02-13T09:51:19.456Z,8.73
2023-02-13T09:56:47.188Z,8.88
2023-02-13T10:01:53.907Z,8.82
2023-02-13T10:07:19.190Z,8.87
2023-02-13T10:12:35.542Z,10.57
2023-02-13T10:17:43.132Z,11.22
2023-02-13T10:22:54.201Z,11.77
2023-02-13T10:28:04.802Z,12.51
2023-02-13T10:33:18.886Z,11.05
2023-02-13T10:38:23.560Z,10.83
2023-02-13T10:43:30.134Z,10.37
2023-02-13T10:48:44.811Z,10.60
2023-02-13T10:54:00.174Z,10.78
2023-02-13T10:59:25.939Z,12.35
2023-02-13T11:04:30.184Z,12.44
2023-02-13T11:09:40.020Z,10.84
2023-02-13T11:15:08.088Z,11.28
2023-02-13T11:20:29.119Z,13.45
2023-02-13T11:25:31.737Z,15.94
2023-02-13T11:30:36.283Z,17.70
2023-02-13T11:35:39.037Z,20.50
2023-02-13T11:40:45.122Z,21.62
2023-02-13T11:45:47.838Z,22.64
2023-02-13T11:50:56.216Z,22.64
2023-02-13T11:56:16.879Z,23.11
2023-02-13T12:01:21.700Z,20.70
2023-02-13T12:06:24.010Z,20.59
2023-02-13T12:11:42.527Z,21.79
2023-02-13T12:17:06.376Z,21.66
2023-02-13T12:23:08.009Z,21.46
2023-02-13T12:28:20.303Z,22.27
2023-02-13T12:33:28.006Z,22.83
2023-02-13T12:38:47.262Z,20.38
2023-02-13T12:44:32.842Z,17.10
2023-02-13T12:49:59.401Z,18.00
2023-02-13T12:55:19.431Z,18.18
2023-02-13T13:00:49.655Z,19.09
2023-02-13T13:06:11.991Z,18.59
2023-02-13T13:11:51.727Z,18.23
2023-02-13T13:17:20.788Z,19.16
2023-02-13T13:22:43.227Z,19.33
2023-02-13T13:27:52.569Z,20.95
2023-02-13T13:33:15.700Z,22.37
2023-02-13T13:38:52.147Z,19.96
2023-02-13T13:44:54.306Z,16.18
2023-02-13T13:50:00.046Z,14.87
2023-02-13T13:55:04.554Z,14.33
2023-02-13T14:00:12.094Z,13.83
2023-02-13T14:05:24.449Z,13.36
2023-02-13T14:10:26.854Z,13.08
2023-02-13T14:15:38.340Z,12.70
2023-02-13T14:20:54.307Z,12.63
2023-02-13T14:26:15.642Z,12.43
2023-02-13T14:31:29.434Z,11.84
2023-02-13T14:36:35.273Z,11.96
2023-02-13T14:41:59.875Z,11.85
2023-02-13T14:47:05.904Z,11.85
2023-02-13T14:52:27.708Z,11.72
2023-02-13T14:57:38.013Z,11.86
2023-02-13T15:02:49.824Z,11.86
2023-02-13T15:08:16.129Z,11.81
2023-02-13T15:13:37.516Z,11.66
2023-02-13T15:18:52.688Z,11.61
2023-02-13T15:23:57.619Z,11.56
2023-02-13T15:29:05.830Z,11.58
2023-02-13T15:34:32.365Z,11.60
2023-02-13T15:39:35.079Z,11.24
2023-02-13T15:44:39.882Z,10.90
2023-02-13T15:49:48.381Z,10.93
2023-02-13T15:54:53.037Z,10.79
2023-02-13T15:59:57.668Z,10.18
2023-02-13T16:05:02.666Z,9.96
2023-02-13T16:10:28.243Z,9.97
2023-02-13T16:15:35.855Z,10.16
2023-02-13T16:20:39.016Z,10.16
2023-02-13T16:25:41.734Z,10.31
2023-02-13T16:30:47.369Z,10.09
2023-02-13T16:35:52.387Z,9.66
2023-02-13T16:40:57.974Z,9.50
2023-02-13T16:46:15.600Z,9.29
2023-02-13T16:51:29.595Z,9.13
2023-02-13T16:57:05.648Z,9.09
2023-02-13T17:02:28.929Z,8.95
2023-02-13T17:07:36.096Z,8.66
2023-02-13T17:12:39.210Z,8.57
2023-02-13T17:17:41.414Z,8.36
2023-02-13T17:22:47.368Z,8.24
2023-02-13T17:27:52.054Z,8.16
2023-02-13T17:33:13.892Z,8.01
2023-02-13T17:38:16.392Z,7.72
2023-02-13T17:43:20.780Z,7.65
2023-02-13T17:48:24.248Z,7.17
2023-02-13T17:53:31.241Z,6.74
2023-02-13T17:58:33.278Z,7.19
2023-02-13T18:03:35.341Z,6.88
2023-02-13T18:08:37.543Z,6.72
2023-02-13T18:13:44.014Z,6.38
2023-02-13T18:18:46.304Z,6.33
2023-02-13T18:23:52.358Z,6.24
2023-02-13T18:28:54.445Z,5.90
2023-02-13T18:33:56.978Z,6.02
2023-02-13T18:38:58.972Z,5.77
2023-02-13T18:44:00.960Z,5.73
2023-02-13T18:49:03.186Z,6.32
2023-02-13T18:54:05.834Z,6.57
2023-02-13T18:59:07.917Z,6.01
2023-02-13T19:04:11.174Z,5.42
2023-02-13T19:09:13.598Z,5.42
2023-02-13T19:14:15.998Z,5.28
2023-02-13T19:19:18.459Z,5.37
2023-02-13T19:24:20.755Z,5.32
2023-02-13T19:29:23.156Z,5.37
2023-02-13T19:34:25.407Z,5.30
2023-02-13T19:39:27.490Z,4.93
2023-02-13T19:44:29.506Z,4.97
2023-02-13T19:49:31.704Z,4.66
2023-02-13T19:54:34.174Z,4.68
2023-02-13T19:59:36.556Z,4.36
2023-02-13T20:04:40.086Z,5.02
2023-02-13T20:09:43.257Z,4.97
2023-02-13T20:14:46.167Z,5.14
2023-02-13T20:19:49.282Z,4.99
2023-02-13T20:24:51.980Z,5.08
2023-02-13T20:30:03.378Z,5.12
2023-02-13T20:35:09.449Z,4.93
2023-02-13T20:40:12.436Z,4.36
2023-02-13T20:45:15.134Z,4.24
2023-02-13T20:50:18.065Z,4.23
2023-02-13T20:55:20.835Z,4.55
2023-02-13T21:00:23.845Z,4.80
2023-02-13T21:05:26.270Z,4.82
2023-02-13T21:10:28.728Z,4.46
2023-02-13T21:15:31.478Z,4.86
2023-02-13T21:20:33.910Z,4.92
2023-02-13T21:25:36.592Z,4.88
2023-02-13T21:30:39.158Z,4.97
2023-02-13T21:35:41.707Z,4.93
2023-02-13T21:40:44.172Z,4.91
2023-02-13T21:45:46.780Z,4.56
2023-02-13T21:50:49.589Z,4.88
2023-02-13T21:55:52.190Z,4.99
2023-02-13T22:00:54.800Z,4.93
2023-02-13T22:05:57.478Z,4.89
2023-02-13T22:11:01.119Z,4.78
2023-02-13T22:16:09.076Z,4.76
2023-02-13T22:21:13.885Z,4.67
2023-02-13T22:26:23.716Z,4.46
2023-02-13T22:31:26.402Z,4.25
2023-02-13T22:36:28.908Z,4.57
2023-02-13T22:41:31.324Z,4.43
2023-02-13T22:46:34.926Z,4.17
2023-02-13T22:51:37.601Z,4.15
2023-02-13T22:56:40.044Z,4.15
2023-02-13T23:01:42.642Z,3.99
2023-02-13T23:06:45.190Z,4.22
2023-02-13T23:12:06.529Z,4.40
2023-02-13T23:17:27.462Z,4.41
2023-02-13T23:22:30.418Z,4.66
2023-02-13T23:27:33.575Z,4.62
2023-02-13T23:32:35.982Z,4.34
2023-02-13T23:37:38.757Z,4.09
2023-02-13T23:42:41.629Z,3.52
2023-02-13T23:47:44.029Z,2.84
2023-02-13T23:52:46.529Z,2.93
2023-02-13T23:57:52.007Z,2.73
